Current | Forecast
Updated: 8:30 AM CEST on July 27, 2017
Observed at Valencia Aeropuerto, Spain
Temperature 24°C
Humidity 69%
Dew Point 18°C
Wind Variable at 4 km/h
Pressure 1015 hPa (Steady)
Conditions Clear
Visibility -
UV N/A
Clouds
Yesterday's Maximum 29°C
Yesterday's Minimum 20°C approx.
Yesterday's Cooling Degree Days 11 approx.
Sunrise6:55 AM CEST
Sunset9:19 PM CEST
Moon Rise11:19 AM CEST
Moon Set
Moon PhaseMoon Phase
Waxing Crescent
Raw METARMETAR LEVC 270630Z VRB02KT CAVOK 24/18 Q1015 NOSIG


Monday
. High: 87° F.
Tuesday
. High: 80° F.
Wednesday
. High: 78° F.
Thursday
. High: 77° F.
Friday
. High: 75° F.
Saturday
. High: 84° F.
Sunday
. High: 84° F.
Monday
. High: 80° F.

Click here for Marine Information
Scientific forecaster discussion (NWS)

Units: English | Metric

Find the Weather for any City, State or Zipcode, or Country:

U.S. State List | Severe Weather | Tropical Storms | Ski Conditions
United States | Canada | Central America | South America | Asia | Europe | Australia | Africa | Islands

Weather Underground

© Copyright 2017
The Weather Company, LLC